createdAt,value
2018-10-02T04:29:37.052Z,8.53
2018-10-02T04:32:05.632Z,8.73
2018-10-02T04:34:34.104Z,7.57
2018-10-02T04:37:02.598Z,6.33
2018-10-02T04:39:31.122Z,8.77
2018-10-02T04:41:59.554Z,11.13
2018-10-02T04:44:28.065Z,4.70
2018-10-02T04:46:56.599Z,6.87
2018-10-02T04:49:25.068Z,5.63
2018-10-02T04:51:53.844Z,7.60
2018-10-02T04:54:22.376Z,6.93
2018-10-02T04:56:51.027Z,4.73
2018-10-02T04:59:19.581Z,12.70
2018-10-02T05:01:48.092Z,6.97
2018-10-02T05:04:16.592Z,5.70
2018-10-02T05:06:45.062Z,9.93
2018-10-02T05:09:13.604Z,9.67
2018-10-02T05:11:42.105Z,4.93
2018-10-02T05:14:10.708Z,5.97
2018-10-02T05:16:39.171Z,6.67
2018-10-02T05:19:07.778Z,6.90
2018-10-02T05:21:36.248Z,7.33
2018-10-02T05:24:04.739Z,7.63
2018-10-02T05:26:33.204Z,7.63
2018-10-02T05:29:01.725Z,7.03
2018-10-02T05:31:30.206Z,6.47
2018-10-02T05:33:58.753Z,6.73
2018-10-02T05:36:27.573Z,8.20
2018-10-02T05:38:57.172Z,11.13
2018-10-02T05:41:26.548Z,7.03
2018-10-02T05:43:55.092Z,5.97
2018-10-02T05:46:23.617Z,7.03
2018-10-02T05:48:52.142Z,9.27
2018-10-02T05:51:20.703Z,10.50
2018-10-02T05:53:49.233Z,4.37
2018-10-02T05:56:17.777Z,9.07
2018-10-02T05:58:46.317Z,5.10
2018-10-02T06:01:14.843Z,7.27
2018-10-02T06:03:43.448Z,8.90
2018-10-02T06:06:11.946Z,6.63
2018-10-02T06:08:40.455Z,7.93
2018-10-02T06:11:08.984Z,5.07
2018-10-02T06:13:37.490Z,5.93
2018-10-02T06:16:06.064Z,9.97
2018-10-02T06:18:34.620Z,8.83
2018-10-02T06:21:03.217Z,6.63
2018-10-02T06:23:32.086Z,8.60
2018-10-02T06:26:00.668Z,8.47
2018-10-02T06:28:29.562Z,7.53
2018-10-02T06:30:58.446Z,5.93
2018-10-02T06:33:27.156Z,7.97
2018-10-02T06:35:55.675Z,5.77
2018-10-02T06:38:24.521Z,7.20
2018-10-02T06:40:53.124Z,8.57
2018-10-02T06:43:21.920Z,6.07
2018-10-02T06:45:51.027Z,9.00
2018-10-02T06:48:22.709Z,6.73
2018-10-02T06:50:51.489Z,8.97
2018-10-02T06:53:19.937Z,9.60
2018-10-02T06:55:48.524Z,7.93
2018-10-02T06:58:17.053Z,7.50
2018-10-02T07:00:45.588Z,7.07
2018-10-02T07:03:14.063Z,10.63
2018-10-02T07:05:42.636Z,10.20
2018-10-02T07:08:11.338Z,6.70
2018-10-02T07:10:40.053Z,6.77
2018-10-02T07:13:09.925Z,6.87
2018-10-02T07:15:38.621Z,3.93
2018-10-02T07:18:07.137Z,10.53
2018-10-02T07:20:36.252Z,9.17
2018-10-02T07:23:05.627Z,12.13
2018-10-02T07:25:34.280Z,10.30
2018-10-02T07:28:03.173Z,9.77
2018-10-02T07:30:31.548Z,7.23
2018-10-02T07:33:00.114Z,6.40
2018-10-02T07:35:28.573Z,5.63
2018-10-02T07:37:57.127Z,9.03
2018-10-02T07:40:25.703Z,7.23
2018-10-02T07:42:54.293Z,8.17
2018-10-02T07:45:22.853Z,8.53
2018-10-02T07:47:51.388Z,7.17
2018-10-02T07:50:19.866Z,8.10
2018-10-02T07:52:48.449Z,6.03
2018-10-02T07:55:16.995Z,8.67
2018-10-02T07:57:45.531Z,10.17
2018-10-02T08:00:14.061Z,7.00
2018-10-02T08:02:42.631Z,8.20
2018-10-02T08:05:11.194Z,6.43
2018-10-02T08:07:39.686Z,6.90
2018-10-02T08:10:08.225Z,3.53
2018-10-02T08:12:36.732Z,12.77
2018-10-02T08:15:05.321Z,5.63
2018-10-02T08:17:33.856Z,8.40
2018-10-02T08:20:02.423Z,6.03
2018-10-02T08:22:30.877Z,9.80
2018-10-02T08:24:59.373Z,8.00
2018-10-02T08:27:27.974Z,11.57
2018-10-02T08:29:56.533Z,8.67
2018-10-02T08:32:25.028Z,6.13
2018-10-02T08:34:53.561Z,11.77
2018-10-02T08:37:22.100Z,8.57
2018-10-02T08:39:50.554Z,11.70
2018-10-02T08:42:19.046Z,14.93
2018-10-02T08:44:47.562Z,12.23
2018-10-02T08:47:16.041Z,9.63
2018-10-02T08:49:44.502Z,6.13
2018-10-02T08:52:13.136Z,10.50
2018-10-02T08:54:41.670Z,6.80
2018-10-02T08:57:10.226Z,10.43
2018-10-02T08:59:38.778Z,7.77
2018-10-02T09:02:07.367Z,8.70
2018-10-02T09:04:35.878Z,7.83
2018-10-02T09:07:04.503Z,8.97
2018-10-02T09:09:32.998Z,10.80
2018-10-02T09:12:01.487Z,4.30
2018-10-02T09:14:29.976Z,10.60
2018-10-02T09:16:58.511Z,10.27
2018-10-02T09:19:26.988Z,8.30
2018-10-02T09:21:55.524Z,9.83
2018-10-02T09:24:24.051Z,12.50
2018-10-02T09:26:52.513Z,8.57
2018-10-02T09:29:20.988Z,10.27
2018-10-02T09:31:54.843Z,13.00
2018-10-02T09:34:28.501Z,12.53
2018-10-02T09:37:02.225Z,9.03
2018-10-02T09:39:36.085Z,8.53
2018-10-02T09:42:09.796Z,10.00
2018-10-02T09:44:38.296Z,8.67
2018-10-02T09:47:06.837Z,7.70
2018-10-02T09:49:35.314Z,12.30
2018-10-02T09:52:03.840Z,8.73
2018-10-02T09:54:32.370Z,10.00
2018-10-02T09:57:00.893Z,9.03
2018-10-02T09:59:29.437Z,10.80
2018-10-02T10:02:03.127Z,10.63
2018-10-02T10:04:31.632Z,6.90
2018-10-02T10:07:00.193Z,11.23
2018-10-02T10:09:28.678Z,8.37
2018-10-02T10:11:57.202Z,10.97
2018-10-02T10:14:25.715Z,13.17
2018-10-02T10:16:54.280Z,12.13
2018-10-02T10:19:22.746Z,10.40
2018-10-02T10:21:51.277Z,13.13
2018-10-02T10:24:19.821Z,11.57
2018-10-02T10:26:48.332Z,9.90
2018-10-02T10:29:16.832Z,11.70
2018-10-02T10:31:45.308Z,10.00
2018-10-02T10:34:13.827Z,11.87
2018-10-02T10:36:42.345Z,6.87
2018-10-02T10:39:11.302Z,12.63
2018-10-02T10:41:39.895Z,6.93
2018-10-02T10:44:08.464Z,11.20
2018-10-02T10:46:36.984Z,9.43
2018-10-02T10:49:05.473Z,13.43
2018-10-02T10:51:33.962Z,10.00
2018-10-02T10:54:02.510Z,7.93
2018-10-02T10:56:31.007Z,10.30
2018-10-02T10:58:59.554Z,9.07
2018-10-02T11:01:28.052Z,8.93
2018-10-02T11:03:56.546Z,7.73
2018-10-02T11:06:25.030Z,10.50
2018-10-02T11:08:53.550Z,10.83
2018-10-02T11:11:22.069Z,12.43
2018-10-02T11:13:50.607Z,9.97
2018-10-02T11:16:19.136Z,11.73
2018-10-02T11:18:47.681Z,11.83
2018-10-02T11:21:17.005Z,11.67
2018-10-02T11:23:45.571Z,9.43
2018-10-02T11:26:14.085Z,11.83
2018-10-02T11:28:42.655Z,9.87
2018-10-02T11:31:11.259Z,8.20
2018-10-02T11:33:40.992Z,12.30
2018-10-02T11:36:10.233Z,9.23
2018-10-02T11:38:39.275Z,15.03
2018-10-02T11:41:08.420Z,13.60
2018-10-02T11:43:38.992Z,9.37
2018-10-02T11:46:08.592Z,13.27
2018-10-02T11:48:38.117Z,9.47
2018-10-02T11:51:07.597Z,8.77
2018-10-02T11:53:36.214Z,10.63
2018-10-02T11:56:04.758Z,9.73
2018-10-02T11:58:33.312Z,11.63
2018-10-02T12:01:02.135Z,12.30
2018-10-02T12:03:30.657Z,9.20
2018-10-02T12:05:59.256Z,12.63
2018-10-02T12:08:27.926Z,8.73
2018-10-02T12:10:56.840Z,13.57
2018-10-02T12:13:25.404Z,11.23
2018-10-02T12:15:53.888Z,7.40
2018-10-02T12:18:22.444Z,10.03
2018-10-02T12:20:50.911Z,10.40
2018-10-02T12:23:19.410Z,9.97
2018-10-02T12:25:47.943Z,11.27
2018-10-02T12:28:16.576Z,7.97
2018-10-02T12:30:45.146Z,12.13
2018-10-02T12:33:13.689Z,10.10
2018-10-02T12:35:42.181Z,13.33
2018-10-02T12:38:10.755Z,7.20
2018-10-02T12:40:39.281Z,11.77
2018-10-02T12:43:07.847Z,10.20
2018-10-02T12:45:36.346Z,8.93
2018-10-02T12:48:04.862Z,12.53
2018-10-02T12:50:33.499Z,9.17
2018-10-02T12:53:02.029Z,12.80
2018-10-02T12:55:30.517Z,10.23
2018-10-02T12:58:01.828Z,8.53
2018-10-02T13:00:31.841Z,9.47
2018-10-02T13:03:00.308Z,9.13
2018-10-02T13:05:30.462Z,8.53
2018-10-02T13:07:59.116Z,9.60
2018-10-02T13:10:28.137Z,7.13
2018-10-02T13:12:57.960Z,11.77
2018-10-02T13:15:26.465Z,13.07
2018-10-02T13:17:55.151Z,10.70
2018-10-02T13:20:23.891Z,9.93
2018-10-02T13:22:52.737Z,9.20
2018-10-02T13:25:21.359Z,8.03
2018-10-02T13:27:49.838Z,9.77
2018-10-02T13:30:18.374Z,10.80
2018-10-02T13:32:46.852Z,19.70
2018-10-02T13:35:16.208Z,14.67
2018-10-02T13:37:44.786Z,10.80
2018-10-02T13:40:13.291Z,9.73
2018-10-02T13:42:45.238Z,11.00
2018-10-02T13:45:15.993Z,11.47
2018-10-02T13:47:48.271Z,8.87
2018-10-02T13:50:17.367Z,10.93
2018-10-02T13:52:47.366Z,8.93
2018-10-02T13:55:16.990Z,11.43
2018-10-02T13:57:47.049Z,12.43
2018-10-02T14:00:16.907Z,6.63
2018-10-02T14:02:45.803Z,8.50
2018-10-02T14:05:14.873Z,9.10
2018-10-02T14:07:44.509Z,11.07
2018-10-02T14:10:14.026Z,8.47
2018-10-02T14:12:43.082Z,7.67
2018-10-02T14:15:12.654Z,9.73
2018-10-02T14:17:43.175Z,8.93
2018-10-02T14:20:12.350Z,11.73
2018-10-02T14:22:42.528Z,9.97
2018-10-02T14:25:12.090Z,18.23
2018-10-02T14:27:40.581Z,23.63
2018-10-02T14:30:10.375Z,20.30
2018-10-02T14:32:41.542Z,9.37
2018-10-02T14:35:10.099Z,4.97
2018-10-02T14:37:39.491Z,7.33
2018-10-02T14:40:08.118Z,5.77
2018-10-02T14:42:38.617Z,6.90
2018-10-02T14:45:09.254Z,5.33
2018-10-02T14:47:39.762Z,5.57
2018-10-02T14:50:09.805Z,4.33
2018-10-02T14:52:40.561Z,5.33
2018-10-02T14:55:10.560Z,6.60
2018-10-02T14:57:41.194Z,4.20
2018-10-02T15:00:10.781Z,3.07
2018-10-02T15:02:39.871Z,3.43
2018-10-02T15:05:10.115Z,3.87
2018-10-02T15:07:40.304Z,4.80
2018-10-02T15:10:09.771Z,3.03
2018-10-02T15:12:39.320Z,2.03
2018-10-02T15:15:09.285Z,3.60
2018-10-02T15:17:39.272Z,2.63
2018-10-02T15:20:07.901Z,3.13
2018-10-02T15:22:36.438Z,2.93
2018-10-02T15:25:05.021Z,2.00
2018-10-02T15:27:33.541Z,1.53
2018-10-02T15:30:02.098Z,2.50
2018-10-02T15:32:30.593Z,1.37
2018-10-02T15:34:59.145Z,2.00
2018-10-02T15:37:27.710Z,2.07
2018-10-02T15:39:56.353Z,4.13
2018-10-02T15:42:24.953Z,3.30
2018-10-02T15:44:53.474Z,1.83
2018-10-02T15:47:22.315Z,3.00
2018-10-02T15:49:50.872Z,1.20
2018-10-02T15:52:19.402Z,1.67
2018-10-02T15:54:47.961Z,2.23
2018-10-02T15:57:16.427Z,1.43
2018-10-02T15:59:45.058Z,2.40
2018-10-02T16:02:14.009Z,1.13
2018-10-02T16:04:43.791Z,1.33
2018-10-02T16:07:13.398Z,1.47
2018-10-02T16:09:41.946Z,0.90
2018-10-02T16:12:13.452Z,2.20
2018-10-02T16:14:42.014Z,1.57
2018-10-02T16:17:11.277Z,1.30
2018-10-02T16:19:40.874Z,1.63
2018-10-02T16:22:09.399Z,2.80
2018-10-02T16:24:38.429Z,2.47
2018-10-02T16:27:07.600Z,2.23
2018-10-02T16:29:36.854Z,1.17
2018-10-02T16:32:06.780Z,1.37
2018-10-02T16:34:48.979Z,1.73
2018-10-02T16:37:07.423Z,1.47
2018-10-02T16:39:38.795Z,1.60
2018-10-02T16:42:08.946Z,1.40
2018-10-02T16:44:39.472Z,3.20
2018-10-02T16:47:09.247Z,1.43
2018-10-02T16:49:37.728Z,2.03
2018-10-02T16:52:06.352Z,1.10
2018-10-02T16:54:34.873Z,0.87
2018-10-02T16:57:03.490Z,1.83
2018-10-02T16:59:31.949Z,1.60
2018-10-02T17:02:03.066Z,0.87
2018-10-02T17:04:33.325Z,1.50
2018-10-02T17:07:04.167Z,2.43
2018-10-02T17:09:34.820Z,1.20
2018-10-02T17:12:06.076Z,1.10
2018-10-02T17:14:36.128Z,2.20
2018-10-02T17:17:06.418Z,1.67
2018-10-02T17:19:36.247Z,1.30
2018-10-02T17:22:07.210Z,0.90
2018-10-02T17:24:37.879Z,2.33
2018-10-02T17:27:08.544Z,1.23
2018-10-02T17:29:39.191Z,2.40
2018-10-02T17:32:09.745Z,1.23
2018-10-02T17:34:41.576Z,2.23
2018-10-02T17:37:11.768Z,1.20
2018-10-02T17:39:40.337Z,2.27
2018-10-02T17:42:08.855Z,1.80
2018-10-02T17:44:37.384Z,2.43
2018-10-02T17:47:05.940Z,1.67
2018-10-02T17:49:36.435Z,6.47
2018-10-02T17:52:07.073Z,3.00
2018-10-02T17:54:39.825Z,2.10
2018-10-02T17:57:10.110Z,4.73
2018-10-02T17:59:41.948Z,2.50
2018-10-02T18:02:13.345Z,2.43
2018-10-02T18:04:44.648Z,1.93
2018-10-02T18:07:15.375Z,1.40
2018-10-02T18:09:47.313Z,1.67
2018-10-02T18:12:18.052Z,2.33
2018-10-02T18:14:50.414Z,1.70
2018-10-02T18:17:18.982Z,1.90
2018-10-02T18:19:48.786Z,3.90
2018-10-02T18:22:19.494Z,3.37
2018-10-02T18:24:54.280Z,2.23
2018-10-02T18:27:26.427Z,3.20
2018-10-02T18:29:57.079Z,1.87
2018-10-02T18:32:27.616Z,1.70
2018-10-02T18:34:58.287Z,2.20
2018-10-02T18:37:30.402Z,1.77
2018-10-02T18:40:00.729Z,3.40
2018-10-02T18:42:31.202Z,1.87
2018-10-02T18:45:01.870Z,1.70
2018-10-02T18:47:31.834Z,1.67
2018-10-02T18:50:00.679Z,3.03
2018-10-02T18:52:29.250Z,2.63
2018-10-02T18:54:57.801Z,1.93
2018-10-02T18:57:26.414Z,3.30
2018-10-02T18:59:55.093Z,2.33
2018-10-02T19:02:23.722Z,3.53
2018-10-02T19:04:52.299Z,4.00
2018-10-02T19:07:20.932Z,4.03
2018-10-02T19:09:49.443Z,2.83
2018-10-02T19:12:19.867Z,3.63
2018-10-02T19:14:48.433Z,3.77
2018-10-02T19:17:17.015Z,3.57
2018-10-02T19:19:51.289Z,3.50
2018-10-02T19:22:19.936Z,4.23
2018-10-02T19:24:48.457Z,4.20
2018-10-02T19:27:16.931Z,5.07
2018-10-02T19:29:45.493Z,4.27
2018-10-02T19:32:16.610Z,5.23
2018-10-02T19:34:48.972Z,4.37
2018-10-02T19:37:23.960Z,5.80
2018-10-02T19:39:52.580Z,4.17
2018-10-02T19:42:21.179Z,3.40
2018-10-02T19:44:50.648Z,4.37
2018-10-02T19:47:20.166Z,3.67
2018-10-02T19:49:49.935Z,4.43
2018-10-02T19:52:19.472Z,3.73
2018-10-02T19:54:49.108Z,4.00
2018-10-02T19:57:19.551Z,4.47
2018-10-02T19:59:49.093Z,3.73
2018-10-02T20:02:18.145Z,4.47
2018-10-02T20:04:47.094Z,5.43
2018-10-02T20:07:16.865Z,4.20
2018-10-02T20:09:46.118Z,5.30
2018-10-02T20:12:15.425Z,4.60
2018-10-02T20:14:43.941Z,4.23
2018-10-02T20:17:12.468Z,4.93
2018-10-02T20:19:42.439Z,4.73
2018-10-02T20:22:12.822Z,6.00
2018-10-02T20:24:42.833Z,8.97
2018-10-02T20:27:12.027Z,4.77
2018-10-02T20:29:42.270Z,5.50
2018-10-02T20:32:12.588Z,5.57
2018-10-02T20:34:43.079Z,5.20
2018-10-02T20:37:12.341Z,4.83
2018-10-02T20:39:42.309Z,4.77
2018-10-02T20:42:11.529Z,7.47
2018-10-02T20:44:40.353Z,5.67
2018-10-02T20:47:11.995Z,5.73
2018-10-02T20:49:40.825Z,6.83
2018-10-02T20:52:10.528Z,5.83
2018-10-02T20:54:40.433Z,7.23
2018-10-02T20:57:10.002Z,6.47
2018-10-02T20:59:39.030Z,6.53
2018-10-02T21:02:07.553Z,7.80
2018-10-02T21:04:37.726Z,5.87
2018-10-02T21:07:08.897Z,8.03
2018-10-02T21:09:39.151Z,7.73
2018-10-02T21:12:09.233Z,6.63
2018-10-02T21:14:38.941Z,6.90
2018-10-02T21:17:07.838Z,6.93
2018-10-02T21:19:36.326Z,5.90
2018-10-02T21:22:05.084Z,8.37
2018-10-02T21:24:34.004Z,7.20
2018-10-02T21:27:02.746Z,8.40
2018-10-02T21:29:31.318Z,6.43
2018-10-02T21:31:59.857Z,7.37
2018-10-02T21:34:28.590Z,9.40
2018-10-02T21:36:57.106Z,10.97
2018-10-02T21:39:25.620Z,10.80
2018-10-02T21:41:54.082Z,8.73
2018-10-02T21:44:22.598Z,11.03
2018-10-02T21:46:51.093Z,9.60
2018-10-02T21:49:19.601Z,12.77
2018-10-02T21:51:48.140Z,13.40
2018-10-02T21:54:16.643Z,8.70
2018-10-02T21:56:45.149Z,11.67
